createdAt,value
2023-04-02T00:00:10.383Z,72.10
2023-04-02T00:02:58.966Z,72.00
2023-04-02T00:05:31.113Z,72.00
2023-04-02T00:07:59.409Z,71.70
2023-04-02T00:10:55.523Z,71.70
2023-04-02T00:13:41.457Z,71.60
2023-04-02T00:16:11.484Z,71.60
2023-04-02T00:18:42.814Z,71.80
2023-04-02T00:21:11.806Z,72.00
2023-04-02T00:23:40.180Z,71.80
2023-04-02T00:26:23.089Z,72.80
2023-04-02T00:28:51.343Z,72.00
2023-04-02T00:31:19.516Z,71.90
2023-04-02T00:33:46.389Z,71.90
2023-04-02T00:36:13.153Z,72.00
2023-04-02T00:38:43.813Z,72.20
2023-04-02T00:41:14.134Z,72.20
2023-04-02T00:43:44.630Z,72.20
2023-04-02T00:46:15.226Z,72.40
2023-04-02T00:48:46.602Z,72.20
2023-04-02T00:51:20.392Z,72.20
2023-04-02T00:53:47.383Z,72.20
2023-04-02T00:56:28.654Z,72.20
2023-04-02T00:58:56.300Z,72.30
2023-04-02T01:01:26.366Z,72.30
2023-04-02T01:04:00.357Z,72.50
2023-04-02T01:06:35.639Z,72.50
2023-04-02T01:09:34.276Z,72.50
2023-04-02T01:12:01.026Z,72.50
2023-04-02T01:14:51.211Z,72.60
2023-04-02T01:17:48.980Z,72.70
2023-04-02T01:20:30.963Z,72.70
2023-04-02T01:23:08.421Z,72.70
2023-04-02T01:25:47.572Z,72.70
2023-04-02T01:28:39.881Z,72.60
2023-04-02T01:31:06.776Z,72.80
2023-04-02T01:33:34.272Z,72.70
2023-04-02T01:36:09.736Z,72.80
2023-04-02T01:38:41.175Z,72.80
2023-04-02T01:41:55.463Z,72.80
2023-04-02T01:44:30.221Z,72.90
2023-04-02T01:47:00.801Z,72.90
2023-04-02T01:49:27.676Z,73.10
2023-04-02T01:51:56.646Z,73.10
2023-04-02T01:54:23.636Z,73.10
2023-04-02T01:56:50.910Z,73.10
2023-04-02T01:59:20.281Z,73.00
2023-04-02T02:01:59.581Z,73.00
2023-04-02T02:04:26.334Z,73.00
2023-04-02T02:06:53.117Z,73.20
2023-04-02T02:09:26.057Z,73.10
2023-04-02T02:11:52.883Z,73.10
2023-04-02T02:14:23.383Z,72.90
2023-04-02T02:16:50.226Z,72.90
2023-04-02T02:19:27.383Z,73.10
2023-04-02T02:21:55.175Z,73.20
2023-04-02T02:24:25.798Z,73.30
2023-04-02T02:27:24.633Z,73.10
2023-04-02T02:30:14.194Z,73.10
2023-04-02T02:32:47.930Z,73.10
2023-04-02T02:35:48.618Z,73.10
2023-04-02T02:38:15.756Z,73.10
2023-04-02T02:40:43.941Z,73.00
2023-04-02T02:43:12.159Z,73.00
2023-04-02T02:45:39.043Z,73.10
2023-04-02T02:48:08.674Z,73.10
2023-04-02T02:50:35.428Z,73.30
2023-04-02T02:53:05.249Z,73.10
2023-04-02T02:55:34.503Z,72.90
2023-04-02T02:58:26.718Z,73.00
2023-04-02T03:00:53.840Z,72.90
2023-04-02T03:03:23.307Z,73.00
2023-04-02T03:05:52.529Z,73.10
2023-04-02T03:08:41.623Z,73.20
2023-04-02T03:11:26.612Z,73.10
2023-04-02T03:13:54.597Z,73.30
2023-04-02T03:16:28.823Z,73.20
2023-04-02T03:18:55.692Z,73.30
2023-04-02T03:21:28.558Z,73.40
2023-04-02T03:24:03.761Z,73.40
2023-04-02T03:26:42.338Z,73.40
2023-04-02T03:29:28.182Z,73.30
2023-04-02T03:32:00.194Z,73.40
2023-04-02T03:34:33.479Z,73.40
2023-04-02T03:37:06.786Z,73.40
2023-04-02T03:39:34.387Z,73.50
2023-04-02T03:42:07.242Z,73.50
2023-04-02T03:44:39.630Z,73.50
2023-04-02T03:47:19.314Z,73.60
2023-04-02T03:50:06.315Z,73.60
2023-04-02T03:52:34.758Z,73.60
2023-04-02T03:55:01.847Z,73.50
2023-04-02T03:57:38.435Z,73.60
2023-04-02T04:00:13.630Z,73.50
2023-04-02T04:02:50.792Z,73.50
2023-04-02T04:05:28.457Z,73.50
2023-04-02T04:08:00.718Z,73.50
2023-04-02T04:10:27.566Z,73.40
2023-04-02T04:12:55.958Z,73.50
2023-04-02T04:15:25.041Z,73.50
2023-04-02T04:18:13.332Z,73.60
2023-04-02T04:20:57.006Z,73.60
2023-04-02T04:23:37.157Z,73.60
2023-04-02T04:26:21.483Z,73.50
2023-04-02T04:29:19.482Z,73.60
2023-04-02T04:31:49.523Z,73.70
2023-04-02T04:34:20.759Z,73.60
2023-04-02T04:36:55.267Z,73.50
2023-04-02T04:39:29.591Z,73.20
2023-04-02T04:41:57.952Z,73.00
2023-04-02T04:44:34.245Z,73.20
2023-04-02T04:47:16.071Z,73.20
2023-04-02T04:49:47.874Z,73.20
2023-04-02T04:52:19.085Z,73.20
2023-04-02T04:54:45.991Z,73.30
2023-04-02T04:57:26.117Z,73.30
2023-04-02T05:00:07.109Z,73.20
2023-04-02T05:02:38.689Z,73.10
2023-04-02T05:05:14.649Z,73.30
2023-04-02T05:07:47.047Z,73.00
2023-04-02T05:10:30.916Z,73.20
2023-04-02T05:13:25.289Z,73.10
2023-04-02T05:16:22.410Z,73.20
2023-04-02T05:18:55.035Z,73.40
2023-04-02T05:21:41.272Z,73.60
2023-04-02T05:24:41.023Z,73.50
2023-04-02T05:27:36.854Z,73.50
2023-04-02T05:30:12.614Z,73.60
2023-04-02T05:32:43.579Z,73.70
2023-04-02T05:35:20.512Z,73.70
2023-04-02T05:37:47.377Z,73.70
2023-04-02T05:40:20.250Z,73.70
2023-04-02T05:42:49.351Z,73.60
2023-04-02T05:45:34.744Z,73.60
2023-04-02T05:48:03.678Z,73.70
2023-04-02T05:50:33.523Z,73.70
2023-04-02T05:53:08.807Z,73.90
2023-04-02T05:55:42.175Z,73.90
2023-04-02T05:58:35.615Z,73.90
2023-04-02T06:01:04.837Z,73.90
2023-04-02T06:03:44.834Z,74.00
2023-04-02T06:06:23.269Z,74.00
2023-04-02T06:09:01.487Z,74.00
2023-04-02T06:11:32.771Z,74.20
2023-04-02T06:13:59.539Z,74.10
2023-04-02T06:16:30.414Z,74.20
2023-04-02T06:18:57.271Z,74.50
2023-04-02T06:21:24.103Z,74.50
2023-04-02T06:23:56.851Z,74.20
2023-04-02T06:26:35.189Z,74.60
2023-04-02T06:29:15.948Z,74.90
2023-04-02T06:31:56.601Z,75.20
2023-04-02T06:34:27.870Z,75.10
2023-04-02T06:37:21.382Z,74.60
2023-04-02T06:39:48.141Z,74.50
2023-04-02T06:42:37.731Z,74.20
2023-04-02T06:45:04.846Z,74.50
2023-04-02T06:47:45.832Z,74.30
2023-04-02T06:50:48.069Z,74.20
2023-04-02T06:53:19.900Z,74.20
2023-04-02T06:55:54.420Z,74.10
2023-04-02T06:58:21.303Z,74.10
2023-04-02T07:00:48.916Z,74.20
2023-04-02T07:03:27.664Z,74.00
2023-04-02T07:05:54.705Z,73.90
2023-04-02T07:08:21.560Z,73.80
2023-04-02T07:10:48.433Z,73.70
2023-04-02T07:13:19.798Z,73.40
2023-04-02T07:15:47.389Z,73.80
2023-04-02T07:18:24.225Z,73.70
2023-04-02T07:20:52.095Z,73.90
2023-04-02T07:23:21.146Z,73.50
2023-04-02T07:25:52.183Z,73.40
2023-04-02T07:28:20.848Z,73.30
2023-04-02T07:30:48.746Z,73.50
2023-04-02T07:33:20.587Z,73.50
2023-04-02T07:35:47.697Z,73.10
2023-04-02T07:38:14.491Z,73.00
2023-04-02T07:40:41.412Z,73.30
2023-04-02T07:43:08.155Z,73.50
2023-04-02T07:45:35.984Z,73.30
2023-04-02T07:48:13.225Z,73.00
2023-04-02T07:50:39.963Z,73.00
2023-04-02T07:53:08.952Z,72.90
2023-04-02T07:55:36.293Z,71.80
2023-04-02T07:58:03.278Z,72.70
2023-04-02T08:00:30.113Z,71.60
2023-04-02T08:02:57.157Z,71.60
2023-04-02T08:05:24.047Z,71.70
2023-04-02T08:07:55.136Z,71.60
2023-04-02T08:10:22.010Z,71.50
2023-04-02T08:12:49.719Z,71.50
2023-04-02T08:15:16.686Z,71.60
2023-04-02T08:17:43.728Z,71.50
2023-04-02T08:20:21.285Z,71.40
2023-04-02T08:22:48.534Z,71.10
2023-04-02T08:25:15.478Z,71.00
2023-04-02T08:27:42.398Z,71.10
2023-04-02T08:30:11.609Z,71.50
2023-04-02T08:32:41.126Z,70.60
2023-04-02T08:35:10.013Z,70.60
2023-04-02T08:37:37.233Z,70.50
2023-04-02T08:40:05.128Z,70.60
2023-04-02T08:42:41.506Z,70.50
2023-04-02T08:45:25.076Z,70.50
2023-04-02T08:47:53.470Z,70.20
2023-04-02T08:50:31.044Z,70.10
2023-04-02T08:52:58.684Z,70.00
2023-04-02T08:55:33.635Z,69.70
2023-04-02T08:58:09.427Z,69.90
2023-04-02T09:00:39.487Z,69.50
2023-04-02T09:03:35.504Z,69.20
2023-04-02T09:06:02.395Z,69.10
2023-04-02T09:08:29.878Z,68.80
2023-04-02T09:11:36.269Z,69.10
2023-04-02T09:14:05.343Z,68.80
2023-04-02T09:16:43.921Z,68.80
2023-04-02T09:19:31.523Z,68.80
2023-04-02T09:22:25.318Z,68.80
2023-04-02T09:24:59.687Z,68.50
2023-04-02T09:27:28.327Z,68.50
2023-04-02T09:30:04.024Z,68.00
2023-04-02T09:32:36.520Z,67.80
2023-04-02T09:35:22.407Z,67.60
2023-04-02T09:38:10.554Z,67.40
2023-04-02T09:40:55.765Z,67.60
2023-04-02T09:43:28.479Z,67.20
2023-04-02T09:46:13.911Z,67.00
2023-04-02T09:48:45.630Z,66.60
2023-04-02T09:51:21.725Z,66.50
2023-04-02T09:53:49.447Z,66.00
2023-04-02T09:56:17.536Z,65.70
2023-04-02T09:58:44.816Z,65.90
2023-04-02T10:01:25.759Z,65.90
2023-04-02T10:03:52.688Z,66.00
2023-04-02T10:06:19.562Z,66.30
2023-04-02T10:08:46.662Z,65.20
2023-04-02T10:11:18.349Z,65.30
2023-04-02T10:14:21.872Z,64.80
2023-04-02T10:17:06.506Z,64.80
2023-04-02T10:19:36.290Z,64.30
2023-04-02T10:22:16.406Z,64.10
2023-04-02T10:24:43.371Z,64.20
2023-04-02T10:27:28.695Z,64.00
2023-04-02T10:30:13.425Z,63.80
2023-04-02T10:33:07.867Z,63.60
2023-04-02T10:35:41.258Z,63.60
2023-04-02T10:38:24.733Z,63.50
2023-04-02T10:41:09.249Z,63.60
2023-04-02T10:43:39.795Z,63.50
2023-04-02T10:46:33.871Z,63.20
2023-04-02T10:49:21.197Z,63.00
2023-04-02T10:52:06.277Z,62.70
2023-04-02T10:54:51.433Z,62.80
2023-04-02T10:57:24.222Z,62.90
2023-04-02T11:00:11.347Z,62.40
2023-04-02T11:03:04.157Z,62.50
2023-04-02T11:05:50.350Z,62.20
2023-04-02T11:08:26.749Z,61.80
2023-04-02T11:10:58.504Z,61.90
2023-04-02T11:13:33.664Z,61.70
2023-04-02T11:16:00.428Z,61.60
2023-04-02T11:18:38.742Z,61.30
2023-04-02T11:21:09.446Z,60.90
2023-04-02T11:23:51.409Z,61.00
2023-04-02T11:26:38.906Z,60.80
2023-04-02T11:29:11.235Z,60.10
2023-04-02T11:31:39.366Z,60.20
2023-04-02T11:34:06.164Z,59.80
2023-04-02T11:36:51.115Z,59.30
2023-04-02T11:39:56.877Z,58.60
2023-04-02T11:42:25.110Z,59.30
2023-04-02T11:44:55.567Z,59.40
2023-04-02T11:47:23.674Z,60.00
2023-04-02T11:50:01.328Z,60.10
2023-04-02T11:52:59.813Z,59.40
2023-04-02T11:55:31.833Z,59.70
2023-04-02T11:57:58.640Z,59.30
2023-04-02T12:00:59.258Z,59.40
2023-04-02T12:03:47.559Z,59.20
2023-04-02T12:06:33.842Z,58.60
2023-04-02T12:09:23.867Z,59.00
2023-04-02T12:12:01.040Z,58.80
2023-04-02T12:14:36.746Z,58.40
2023-04-02T12:17:27.135Z,58.70
2023-04-02T12:19:56.511Z,59.10
2023-04-02T12:22:29.132Z,59.10
2023-04-02T12:25:01.066Z,59.20
2023-04-02T12:27:29.438Z,58.90
2023-04-02T12:30:10.653Z,58.90
2023-04-02T12:32:37.455Z,58.90
2023-04-02T12:35:04.689Z,58.70
2023-04-02T12:37:31.449Z,58.60
2023-04-02T12:40:01.264Z,58.60
2023-04-02T12:42:28.767Z,58.90
2023-04-02T12:44:55.556Z,58.90
2023-04-02T12:47:22.333Z,58.70
2023-04-02T12:49:49.196Z,58.90
2023-04-02T12:52:17.497Z,59.10
2023-04-02T12:54:46.703Z,59.00
2023-04-02T12:57:21.391Z,59.20
2023-04-02T12:59:48.275Z,59.20
2023-04-02T13:02:21.919Z,58.90
2023-04-02T13:04:53.526Z,58.60
2023-04-02T13:07:21.860Z,58.70
2023-04-02T13:09:52.673Z,58.80
2023-04-02T13:12:32.257Z,58.60
2023-04-02T13:15:00.090Z,58.90
2023-04-02T13:17:41.189Z,58.80
2023-04-02T13:20:36.961Z,59.20
2023-04-02T13:23:29.344Z,59.00
2023-04-02T13:25:56.924Z,58.90
2023-04-02T13:28:23.776Z,58.90
2023-04-02T13:30:50.676Z,58.80
2023-04-02T13:33:17.479Z,58.60
2023-04-02T13:35:44.385Z,57.90
2023-04-02T13:38:11.347Z,57.10
2023-04-02T13:40:38.425Z,57.50
2023-04-02T13:43:05.606Z,56.50
2023-04-02T13:45:37.437Z,56.40
2023-04-02T13:48:04.955Z,56.50
2023-04-02T13:50:33.210Z,56.00
2023-04-02T13:53:04.827Z,56.20
2023-04-02T13:55:32.143Z,56.40
2023-04-02T13:57:58.927Z,55.90
2023-04-02T14:00:26.737Z,56.30
2023-04-02T14:02:59.516Z,56.60
2023-04-02T14:05:48.156Z,56.80
2023-04-02T14:08:42.207Z,56.70
2023-04-02T14:11:21.168Z,56.50
2023-04-02T14:14:02.801Z,56.40
2023-04-02T14:16:35.690Z,56.40
2023-04-02T14:19:17.931Z,56.40
2023-04-02T14:21:57.398Z,56.50
2023-04-02T14:24:30.482Z,56.50
2023-04-02T14:27:12.048Z,56.90
2023-04-02T14:29:51.783Z,57.10
2023-04-02T14:32:29.051Z,57.10
2023-04-02T14:35:05.311Z,57.30
2023-04-02T14:38:03.280Z,57.30
2023-04-02T14:40:32.606Z,57.60
2023-04-02T14:43:19.985Z,57.80
2023-04-02T14:45:50.301Z,58.00
2023-04-02T14:48:27.083Z,58.60
2023-04-02T14:50:58.594Z,58.70
2023-04-02T14:53:34.469Z,58.80
2023-04-02T14:56:01.339Z,58.70
2023-04-02T14:58:37.209Z,58.50
2023-04-02T15:01:09.678Z,58.60
2023-04-02T15:03:43.053Z,58.20
2023-04-02T15:06:17.150Z,58.30
2023-04-02T15:09:08.443Z,58.70
2023-04-02T15:11:53.907Z,58.60
2023-04-02T15:14:44.444Z,58.80
2023-04-02T15:17:11.696Z,58.80
2023-04-02T15:19:38.594Z,59.30
2023-04-02T15:22:26.442Z,59.40
2023-04-02T15:25:26.234Z,59.40
2023-04-02T15:27:59.067Z,59.60
2023-04-02T15:30:29.170Z,59.70
2023-04-02T15:33:28.157Z,59.60
2023-04-02T15:36:21.443Z,59.50
2023-04-02T15:38:54.307Z,59.60
2023-04-02T15:41:26.269Z,59.50
2023-04-02T15:44:05.107Z,59.50
2023-04-02T15:46:50.428Z,60.10
2023-04-02T15:49:52.165Z,60.40
2023-04-02T15:52:39.517Z,60.40
2023-04-02T15:55:45.516Z,60.50
2023-04-02T15:58:25.715Z,60.50
2023-04-02T16:01:02.355Z,61.00
2023-04-02T16:03:38.313Z,61.30
2023-04-02T16:06:20.742Z,61.60
2023-04-02T16:09:04.772Z,61.40
2023-04-02T16:11:31.722Z,61.60
2023-04-02T16:14:25.480Z,61.40
2023-04-02T16:16:52.926Z,61.10
2023-04-02T16:19:42.106Z,61.10
2023-04-02T16:22:22.956Z,61.60
2023-04-02T16:24:54.021Z,61.70
2023-04-02T16:27:43.135Z,60.90
2023-04-02T16:30:34.623Z,61.40
2023-04-02T16:33:13.619Z,61.60
2023-04-02T16:36:05.902Z,62.00
2023-04-02T16:38:55.257Z,62.10
2023-04-02T16:42:31.177Z,62.30
2023-04-02T16:45:13.620Z,62.80
2023-04-02T16:48:09.028Z,63.40
2023-04-02T16:50:46.966Z,63.60
2023-04-02T16:53:21.867Z,63.80
2023-04-02T16:56:22.680Z,64.20
2023-04-02T16:59:17.276Z,64.20
2023-04-02T17:01:45.468Z,64.20
2023-04-02T17:04:20.023Z,64.40
2023-04-02T17:06:49.660Z,64.50
2023-04-02T17:09:42.247Z,65.70
2023-04-02T17:12:27.972Z,64.30
2023-04-02T17:15:27.785Z,64.40
2023-04-02T17:17:57.684Z,64.50
2023-04-02T17:20:25.347Z,64.50
2023-04-02T17:22:52.269Z,64.70
2023-04-02T17:25:30.664Z,64.80
2023-04-02T17:27:57.608Z,64.80
2023-04-02T17:30:46.943Z,64.50
2023-04-02T17:33:15.754Z,63.90
2023-04-02T17:36:11.847Z,63.40
2023-04-02T17:38:56.611Z,63.70
2023-04-02T17:41:31.821Z,63.70
2023-04-02T17:44:18.870Z,64.20
2023-04-02T17:46:54.525Z,64.50
2023-04-02T17:49:57.782Z,64.60
2023-04-02T17:52:43.545Z,65.00
2023-04-02T17:55:19.344Z,65.30
2023-04-02T17:58:07.866Z,65.40
2023-04-02T18:00:54.906Z,65.50
2023-04-02T18:03:44.291Z,66.80
2023-04-02T18:06:38.127Z,67.00
2023-04-02T18:09:19.624Z,67.20
2023-04-02T18:12:13.477Z,67.30
2023-04-02T18:14:56.391Z,67.50
2023-04-02T18:17:25.973Z,67.70
2023-04-02T18:20:43.410Z,67.70
2023-04-02T18:23:28.577Z,67.90
2023-04-02T18:26:33.453Z,68.00
2023-04-02T18:29:37.919Z,67.80
2023-04-02T18:32:19.426Z,67.90
2023-04-02T18:35:10.062Z,67.80
2023-04-02T18:37:51.376Z,67.90
2023-04-02T18:40:38.822Z,67.90
2023-04-02T18:43:29.406Z,68.00
2023-04-02T18:46:19.942Z,68.90
2023-04-02T18:48:46.726Z,68.10
2023-04-02T18:51:23.990Z,68.20
2023-04-02T18:53:53.865Z,68.10
2023-04-02T18:56:22.370Z,68.10
2023-04-02T18:58:49.549Z,68.00
2023-04-02T19:01:19.523Z,68.00
2023-04-02T19:03:53.211Z,68.00
2023-04-02T19:06:28.989Z,68.10
2023-04-02T19:09:08.056Z,68.10
2023-04-02T19:11:35.264Z,68.20
2023-04-02T19:14:07.811Z,68.20
2023-04-02T19:17:00.663Z,68.20
2023-04-02T19:19:38.113Z,68.40
2023-04-02T19:22:17.183Z,68.50
2023-04-02T19:24:57.049Z,68.50
2023-04-02T19:27:48.108Z,68.40
2023-04-02T19:30:32.988Z,68.60
2023-04-02T19:33:02.844Z,68.70
2023-04-02T19:35:35.435Z,68.60
2023-04-02T19:38:34.457Z,68.90
2023-04-02T19:41:27.552Z,69.10
2023-04-02T19:43:54.527Z,69.00
2023-04-02T19:46:21.363Z,69.00
2023-04-02T19:48:53.073Z,68.90
2023-04-02T19:51:19.873Z,68.90
2023-04-02T19:53:46.556Z,69.10
2023-04-02T19:56:13.327Z,69.10
2023-04-02T19:58:40.440Z,69.20
2023-04-02T20:01:07.278Z,69.10
2023-04-02T20:03:34.166Z,69.00
2023-04-02T20:06:01.048Z,69.20
2023-04-02T20:08:28.051Z,69.50
2023-04-02T20:10:55.762Z,69.60
2023-04-02T20:13:22.557Z,69.60
2023-04-02T20:15:51.338Z,69.70
2023-04-02T20:18:18.540Z,69.90
2023-04-02T20:20:48.875Z,69.90
2023-04-02T20:23:16.390Z,70.00
2023-04-02T20:25:53.867Z,70.00
2023-04-02T20:28:21.337Z,69.80
2023-04-02T20:30:50.092Z,69.80
2023-04-02T20:33:21.534Z,70.50
2023-04-02T20:35:49.822Z,69.80
2023-04-02T20:38:16.977Z,69.50
2023-04-02T20:40:43.952Z,69.30
2023-04-02T20:43:12.572Z,69.40
2023-04-02T20:45:39.338Z,69.20
2023-04-02T20:48:06.852Z,69.40
2023-04-02T20:50:33.637Z,69.50
2023-04-02T20:53:01.021Z,69.50
2023-04-02T20:55:27.844Z,69.80
2023-04-02T20:57:54.828Z,69.70
2023-04-02T21:00:22.397Z,69.70
2023-04-02T21:02:49.255Z,69.70
2023-04-02T21:05:16.046Z,69.90
2023-04-02T21:07:42.867Z,70.00
2023-04-02T21:10:10.351Z,70.00
2023-04-02T21:12:37.230Z,69.90
2023-04-02T21:15:04.167Z,69.80
2023-04-02T21:17:31.266Z,70.00
2023-04-02T21:19:58.073Z,70.00
2023-04-02T21:22:25.147Z,70.00
2023-04-02T21:24:51.934Z,70.00
2023-04-02T21:27:18.713Z,70.10
2023-04-02T21:29:45.492Z,70.10
2023-04-02T21:32:21.302Z,70.10
2023-04-02T21:34:49.022Z,70.00
2023-04-02T21:37:15.819Z,69.90
2023-04-02T21:39:42.557Z,69.70
2023-04-02T21:42:11.170Z,69.80
2023-04-02T21:44:37.961Z,69.50
2023-04-02T21:47:04.799Z,69.30
2023-04-02T21:49:31.541Z,69.50
2023-04-02T21:51:58.349Z,69.50
2023-04-02T21:54:25.232Z,69.70
2023-04-02T21:56:52.560Z,69.90
2023-04-02T21:59:19.640Z,69.90
2023-04-02T22:01:50.572Z,69.80
2023-04-02T22:04:19.562Z,69.80
2023-04-02T22:06:46.508Z,69.60
2023-04-02T22:09:15.088Z,69.50
2023-04-02T22:11:44.104Z,69.50
2023-04-02T22:14:11.031Z,69.40
2023-04-02T22:16:38.009Z,69.40
2023-04-02T22:19:07.701Z,69.50
2023-04-02T22:21:34.824Z,69.50
2023-04-02T22:24:02.626Z,69.40
2023-04-02T22:26:29.579Z,69.40
2023-04-02T22:28:56.319Z,69.20
2023-04-02T22:31:27.551Z,69.70
2023-04-02T22:33:54.864Z,69.40
2023-04-02T22:36:22.431Z,69.10
2023-04-02T22:38:49.330Z,70.00
2023-04-02T22:41:17.764Z,68.90
2023-04-02T22:43:45.446Z,68.70
2023-04-02T22:46:13.683Z,68.70
2023-04-02T22:48:40.850Z,68.70
2023-04-02T22:51:08.315Z,68.50
2023-04-02T22:53:36.579Z,68.80
2023-04-02T22:56:11.314Z,68.90
2023-04-02T22:58:38.183Z,68.80
2023-04-02T23:01:13.913Z,68.50
2023-04-02T23:03:40.660Z,68.40
2023-04-02T23:06:09.402Z,67.40
2023-04-02T23:08:36.761Z,67.20
2023-04-02T23:11:11.183Z,67.10
2023-04-02T23:13:38.070Z,66.90
2023-04-02T23:16:06.386Z,67.40
2023-04-02T23:18:36.461Z,66.80
2023-04-02T23:21:03.888Z,67.40
2023-04-02T23:23:31.402Z,68.10
2023-04-02T23:26:15.621Z,68.70
2023-04-02T23:28:42.549Z,68.60
2023-04-02T23:31:13.430Z,68.50
2023-04-02T23:33:40.440Z,68.60
2023-04-02T23:36:30.831Z,68.70
2023-04-02T23:39:01.216Z,68.80
2023-04-02T23:41:28.733Z,68.50
2023-04-02T23:43:56.202Z,68.40
2023-04-02T23:46:23.287Z,68.50
2023-04-02T23:48:50.914Z,68.20
2023-04-02T23:51:17.790Z,68.50
2023-04-02T23:53:45.243Z,69.10
2023-04-02T23:56:12.042Z,69.30
2023-04-02T23:58:38.791Z,69.40
